sensor_id;sensor_type;location;lat;lon;timestamp;P1;durP1;ratioP1;P2;durP2;ratioP2
4323;SDS011;2175;51.018;6.994;2022-11-13T00:00:50;18.83;;;12.63;;
4323;SDS011;2175;51.018;6.994;2022-11-13T00:03:16;19.77;;;12.33;;
4323;SDS011;2175;51.018;6.994;2022-11-13T00:05:42;22.97;;;12.70;;
4323;SDS011;2175;51.018;6.994;2022-11-13T00:08:08;22.03;;;13.10;;
4323;SDS011;2175;51.018;6.994;2022-11-13T00:10:34;23.33;;;12.47;;
4323;SDS011;2175;51.018;6.994;2022-11-13T00:12:59;20.30;;;13.20;;
4323;SDS011;2175;51.018;6.994;2022-11-13T00:15:25;20.23;;;12.83;;
4323;SDS011;2175;51.018;6.994;2022-11-13T00:17:50;23.27;;;13.07;;
4323;SDS011;2175;51.018;6.994;2022-11-13T00:20:17;18.00;;;12.93;;
4323;SDS011;2175;51.018;6.994;2022-11-13T00:22:43;18.30;;;13.00;;
4323;SDS011;2175;51.018;6.994;2022-11-13T00:25:09;18.43;;;13.07;;
4323;SDS011;2175;51.018;6.994;2022-11-13T00:27:34;16.23;;;11.30;;
4323;SDS011;2175;51.018;6.994;2022-11-13T00:30:00;16.77;;;12.20;;
4323;SDS011;2175;51.018;6.994;2022-11-13T00:32:26;20.00;;;12.13;;
4323;SDS011;2175;51.018;6.994;2022-11-13T00:34:52;17.57;;;11.50;;
4323;SDS011;2175;51.018;6.994;2022-11-13T00:37:17;17.73;;;12.50;;
4323;SDS011;2175;51.018;6.994;2022-11-13T00:39:43;18.27;;;12.23;;
4323;SDS011;2175;51.018;6.994;2022-11-13T00:42:09;18.63;;;12.30;;
4323;SDS011;2175;51.018;6.994;2022-11-13T00:44:35;18.17;;;12.00;;
4323;SDS011;2175;51.018;6.994;2022-11-13T00:47:00;22.30;;;13.80;;
4323;SDS011;2175;51.018;6.994;2022-11-13T00:49:26;18.83;;;12.47;;
4323;SDS011;2175;51.018;6.994;2022-11-13T00:51:51;16.50;;;11.40;;
4323;SDS011;2175;51.018;6.994;2022-11-13T00:54:17;17.33;;;11.87;;
4323;SDS011;2175;51.018;6.994;2022-11-13T00:56:43;20.27;;;12.63;;
4323;SDS011;2175;51.018;6.994;2022-11-13T00:59:08;19.40;;;12.97;;
4323;SDS011;2175;51.018;6.994;2022-11-13T01:01:34;23.23;;;12.90;;
4323;SDS011;2175;51.018;6.994;2022-11-13T01:04:00;16.50;;;11.70;;
4323;SDS011;2175;51.018;6.994;2022-11-13T01:06:26;22.03;;;12.83;;
4323;SDS011;2175;51.018;6.994;2022-11-13T01:08:53;17.43;;;12.67;;
4323;SDS011;2175;51.018;6.994;2022-11-13T01:11:20;17.17;;;12.60;;
4323;SDS011;2175;51.018;6.994;2022-11-13T01:13:48;16.60;;;12.47;;
4323;SDS011;2175;51.018;6.994;2022-11-13T01:16:17;17.40;;;13.10;;
4323;SDS011;2175;51.018;6.994;2022-11-13T01:18:44;23.90;;;13.63;;
4323;SDS011;2175;51.018;6.994;2022-11-13T01:21:11;16.80;;;12.10;;
4323;SDS011;2175;51.018;6.994;2022-11-13T01:23:48;20.00;;;12.23;;
4323;SDS011;2175;51.018;6.994;2022-11-13T01:28:42;15.50;;;11.87;;
4323;SDS011;2175;51.018;6.994;2022-11-13T01:31:09;16.73;;;12.37;;
4323;SDS011;2175;51.018;6.994;2022-11-13T01:33:37;19.63;;;12.47;;
4323;SDS011;2175;51.018;6.994;2022-11-13T01:36:03;21.07;;;11.67;;
4323;SDS011;2175;51.018;6.994;2022-11-13T01:38:31;20.17;;;13.17;;
4323;SDS011;2175;51.018;6.994;2022-11-13T01:40:57;19.87;;;13.47;;
4323;SDS011;2175;51.018;6.994;2022-11-13T01:43:25;19.33;;;13.03;;
4323;SDS011;2175;51.018;6.994;2022-11-13T01:48:27;18.47;;;13.03;;
4323;SDS011;2175;51.018;6.994;2022-11-13T01:51:00;16.73;;;12.10;;
4323;SDS011;2175;51.018;6.994;2022-11-13T01:53:28;20.73;;;13.87;;
4323;SDS011;2175;51.018;6.994;2022-11-13T01:55:54;21.03;;;11.73;;
4323;SDS011;2175;51.018;6.994;2022-11-13T01:58:20;17.67;;;12.70;;
4323;SDS011;2175;51.018;6.994;2022-11-13T02:00:46;17.90;;;12.40;;
4323;SDS011;2175;51.018;6.994;2022-11-13T02:03:12;18.53;;;12.97;;
4323;SDS011;2175;51.018;6.994;2022-11-13T02:05:37;18.10;;;13.10;;
4323;SDS011;2175;51.018;6.994;2022-11-13T02:08:03;19.53;;;12.60;;
4323;SDS011;2175;51.018;6.994;2022-11-13T02:10:28;17.60;;;12.97;;
4323;SDS011;2175;51.018;6.994;2022-11-13T02:12:54;16.37;;;12.50;;
4323;SDS011;2175;51.018;6.994;2022-11-13T02:15:21;19.13;;;12.93;;
4323;SDS011;2175;51.018;6.994;2022-11-13T02:17:51;19.33;;;12.47;;
4323;SDS011;2175;51.018;6.994;2022-11-13T02:21:05;21.00;;;12.20;;
4323;SDS011;2175;51.018;6.994;2022-11-13T02:23:30;16.00;;;11.83;;
4323;SDS011;2175;51.018;6.994;2022-11-13T02:26:06;23.90;;;12.40;;
4323;SDS011;2175;51.018;6.994;2022-11-13T02:28:33;17.53;;;12.17;;
4323;SDS011;2175;51.018;6.994;2022-11-13T02:31:09;19.63;;;12.80;;
4323;SDS011;2175;51.018;6.994;2022-11-13T02:33:36;23.23;;;11.73;;
4323;SDS011;2175;51.018;6.994;2022-11-13T02:36:02;17.93;;;12.33;;
4323;SDS011;2175;51.018;6.994;2022-11-13T02:38:29;17.70;;;12.23;;
4323;SDS011;2175;51.018;6.994;2022-11-13T02:40:57;19.63;;;13.47;;
4323;SDS011;2175;51.018;6.994;2022-11-13T02:43:22;20.93;;;13.13;;
4323;SDS011;2175;51.018;6.994;2022-11-13T02:45:48;17.63;;;12.43;;
4323;SDS011;2175;51.018;6.994;2022-11-13T02:48:13;21.30;;;13.03;;
4323;SDS011;2175;51.018;6.994;2022-11-13T02:50:39;16.60;;;11.50;;
4323;SDS011;2175;51.018;6.994;2022-11-13T02:53:05;15.70;;;11.90;;
4323;SDS011;2175;51.018;6.994;2022-11-13T02:55:31;16.80;;;11.90;;
4323;SDS011;2175;51.018;6.994;2022-11-13T02:57:57;19.37;;;12.43;;
4323;SDS011;2175;51.018;6.994;2022-11-13T03:00:22;19.33;;;12.30;;
4323;SDS011;2175;51.018;6.994;2022-11-13T03:02:48;17.57;;;12.37;;
4323;SDS011;2175;51.018;6.994;2022-11-13T03:05:13;18.77;;;13.33;;
4323;SDS011;2175;51.018;6.994;2022-11-13T03:07:40;20.37;;;11.90;;
4323;SDS011;2175;51.018;6.994;2022-11-13T03:10:06;15.63;;;11.57;;
4323;SDS011;2175;51.018;6.994;2022-11-13T03:12:32;18.43;;;12.30;;
4323;SDS011;2175;51.018;6.994;2022-11-13T03:14:58;24.43;;;12.17;;
4323;SDS011;2175;51.018;6.994;2022-11-13T03:17:24;21.27;;;12.37;;
4323;SDS011;2175;51.018;6.994;2022-11-13T03:19:49;21.60;;;11.33;;
4323;SDS011;2175;51.018;6.994;2022-11-13T03:22:15;19.47;;;12.20;;
4323;SDS011;2175;51.018;6.994;2022-11-13T03:24:40;19.07;;;12.30;;
4323;SDS011;2175;51.018;6.994;2022-11-13T03:27:06;17.53;;;11.70;;
4323;SDS011;2175;51.018;6.994;2022-11-13T03:29:32;18.13;;;12.07;;
4323;SDS011;2175;51.018;6.994;2022-11-13T03:31:57;18.13;;;12.00;;
4323;SDS011;2175;51.018;6.994;2022-11-13T03:34:23;18.43;;;12.67;;
4323;SDS011;2175;51.018;6.994;2022-11-13T03:36:49;17.00;;;11.63;;
4323;SDS011;2175;51.018;6.994;2022-11-13T03:39:14;18.13;;;11.90;;
4323;SDS011;2175;51.018;6.994;2022-11-13T03:41:40;18.30;;;12.67;;
4323;SDS011;2175;51.018;6.994;2022-11-13T03:44:05;20.33;;;11.53;;
4323;SDS011;2175;51.018;6.994;2022-11-13T03:46:31;17.03;;;12.37;;
4323;SDS011;2175;51.018;6.994;2022-11-13T03:48:57;23.27;;;13.27;;
4323;SDS011;2175;51.018;6.994;2022-11-13T03:51:23;16.97;;;11.50;;
4323;SDS011;2175;51.018;6.994;2022-11-13T03:53:49;16.60;;;11.80;;
4323;SDS011;2175;51.018;6.994;2022-11-13T03:56:14;17.93;;;11.43;;
4323;SDS011;2175;51.018;6.994;2022-11-13T03:58:40;18.37;;;12.47;;
4323;SDS011;2175;51.018;6.994;2022-11-13T04:01:05;17.60;;;12.20;;
4323;SDS011;2175;51.018;6.994;2022-11-13T04:03:31;15.83;;;11.63;;
4323;SDS011;2175;51.018;6.994;2022-11-13T04:05:57;14.30;;;10.50;;
4323;SDS011;2175;51.018;6.994;2022-11-13T04:08:22;16.73;;;11.30;;
4323;SDS011;2175;51.018;6.994;2022-11-13T04:10:48;15.53;;;10.93;;
4323;SDS011;2175;51.018;6.994;2022-11-13T04:13:13;15.13;;;11.13;;
4323;SDS011;2175;51.018;6.994;2022-11-13T04:15:39;15.50;;;10.30;;
4323;SDS011;2175;51.018;6.994;2022-11-13T04:18:05;16.83;;;10.47;;
4323;SDS011;2175;51.018;6.994;2022-11-13T04:20:30;16.80;;;10.77;;
4323;SDS011;2175;51.018;6.994;2022-11-13T04:22:56;18.83;;;11.97;;
4323;SDS011;2175;51.018;6.994;2022-11-13T04:25:22;18.70;;;12.13;;
4323;SDS011;2175;51.018;6.994;2022-11-13T04:27:49;14.33;;;10.60;;
4323;SDS011;2175;51.018;6.994;2022-11-13T04:30:16;18.70;;;12.60;;
4323;SDS011;2175;51.018;6.994;2022-11-13T04:32:42;17.40;;;11.90;;
4323;SDS011;2175;51.018;6.994;2022-11-13T04:35:08;17.00;;;11.00;;
4323;SDS011;2175;51.018;6.994;2022-11-13T04:37:34;17.80;;;10.73;;
4323;SDS011;2175;51.018;6.994;2022-11-13T04:40:00;14.20;;;10.40;;
4323;SDS011;2175;51.018;6.994;2022-11-13T04:42:25;16.97;;;10.30;;
4323;SDS011;2175;51.018;6.994;2022-11-13T04:45:10;15.00;;;10.53;;
4323;SDS011;2175;51.018;6.994;2022-11-13T04:47:35;17.57;;;10.50;;
4323;SDS011;2175;51.018;6.994;2022-11-13T04:50:01;15.20;;;10.47;;
4323;SDS011;2175;51.018;6.994;2022-11-13T04:52:27;15.97;;;10.90;;
4323;SDS011;2175;51.018;6.994;2022-11-13T04:54:53;13.60;;;10.40;;
4323;SDS011;2175;51.018;6.994;2022-11-13T04:57:19;17.63;;;11.23;;
4323;SDS011;2175;51.018;6.994;2022-11-13T04:59:45;15.47;;;10.33;;
4323;SDS011;2175;51.018;6.994;2022-11-13T05:02:10;15.60;;;11.10;;
4323;SDS011;2175;51.018;6.994;2022-11-13T05:04:36;14.17;;;9.90;;
4323;SDS011;2175;51.018;6.994;2022-11-13T05:07:02;15.17;;;9.77;;
4323;SDS011;2175;51.018;6.994;2022-11-13T05:09:27;12.83;;;9.13;;
4323;SDS011;2175;51.018;6.994;2022-11-13T05:11:53;15.27;;;10.23;;
4323;SDS011;2175;51.018;6.994;2022-11-13T05:14:18;15.70;;;10.70;;
4323;SDS011;2175;51.018;6.994;2022-11-13T05:16:44;12.70;;;9.97;;
4323;SDS011;2175;51.018;6.994;2022-11-13T05:19:10;18.83;;;10.20;;
4323;SDS011;2175;51.018;6.994;2022-11-13T05:21:36;16.73;;;9.03;;
4323;SDS011;2175;51.018;6.994;2022-11-13T05:24:03;13.97;;;10.00;;
4323;SDS011;2175;51.018;6.994;2022-11-13T05:26:29;13.87;;;9.43;;
4323;SDS011;2175;51.018;6.994;2022-11-13T05:28:59;14.20;;;10.23;;
4323;SDS011;2175;51.018;6.994;2022-11-13T05:31:25;13.87;;;9.27;;
4323;SDS011;2175;51.018;6.994;2022-11-13T05:33:51;14.83;;;10.30;;
4323;SDS011;2175;51.018;6.994;2022-11-13T05:36:18;15.47;;;10.40;;
4323;SDS011;2175;51.018;6.994;2022-11-13T05:38:44;16.60;;;10.17;;
4323;SDS011;2175;51.018;6.994;2022-11-13T05:41:11;13.03;;;9.80;;
4323;SDS011;2175;51.018;6.994;2022-11-13T05:43:41;17.23;;;9.80;;
4323;SDS011;2175;51.018;6.994;2022-11-13T05:46:08;14.40;;;9.47;;
4323;SDS011;2175;51.018;6.994;2022-11-13T05:48:45;15.87;;;10.20;;
4323;SDS011;2175;51.018;6.994;2022-11-13T05:51:13;13.63;;;9.83;;
4323;SDS011;2175;51.018;6.994;2022-11-13T05:53:42;14.40;;;10.07;;
4323;SDS011;2175;51.018;6.994;2022-11-13T05:56:12;12.27;;;8.80;;
4323;SDS011;2175;51.018;6.994;2022-11-13T05:58:39;15.63;;;10.30;;
4323;SDS011;2175;51.018;6.994;2022-11-13T06:01:13;17.75;;;9.68;;
4323;SDS011;2175;51.018;6.994;2022-11-13T06:03:41;12.82;;;8.93;;
4323;SDS011;2175;51.018;6.994;2022-11-13T06:06:09;14.27;;;9.77;;
4323;SDS011;2175;51.018;6.994;2022-11-13T06:08:36;14.73;;;9.53;;
4323;SDS011;2175;51.018;6.994;2022-11-13T06:11:03;12.70;;;8.43;;
4323;SDS011;2175;51.018;6.994;2022-11-13T06:13:30;14.60;;;9.32;;
4323;SDS011;2175;51.018;6.994;2022-11-13T06:16:00;14.93;;;9.97;;
4323;SDS011;2175;51.018;6.994;2022-11-13T06:18:27;13.60;;;8.38;;
4323;SDS011;2175;51.018;6.994;2022-11-13T06:20:53;17.37;;;9.20;;
4323;SDS011;2175;51.018;6.994;2022-11-13T06:23:19;12.60;;;9.10;;
4323;SDS011;2175;51.018;6.994;2022-11-13T06:25:44;12.50;;;9.30;;
4323;SDS011;2175;51.018;6.994;2022-11-13T06:28:10;12.67;;;9.70;;
4323;SDS011;2175;51.018;6.994;2022-11-13T06:30:35;13.17;;;8.80;;
4323;SDS011;2175;51.018;6.994;2022-11-13T06:33:01;13.70;;;9.27;;
4323;SDS011;2175;51.018;6.994;2022-11-13T06:35:27;11.67;;;8.57;;
4323;SDS011;2175;51.018;6.994;2022-11-13T06:37:55;11.67;;;8.23;;
4323;SDS011;2175;51.018;6.994;2022-11-13T06:40:21;13.73;;;8.85;;
4323;SDS011;2175;51.018;6.994;2022-11-13T06:42:46;15.67;;;9.07;;
4323;SDS011;2175;51.018;6.994;2022-11-13T06:45:12;14.03;;;9.07;;
4323;SDS011;2175;51.018;6.994;2022-11-13T06:47:38;12.03;;;8.50;;
4323;SDS011;2175;51.018;6.994;2022-11-13T06:50:04;11.30;;;8.43;;
4323;SDS011;2175;51.018;6.994;2022-11-13T06:52:31;14.73;;;7.40;;
4323;SDS011;2175;51.018;6.994;2022-11-13T06:54:56;15.20;;;8.87;;
4323;SDS011;2175;51.018;6.994;2022-11-13T06:57:22;12.30;;;7.97;;
4323;SDS011;2175;51.018;6.994;2022-11-13T06:59:48;12.53;;;7.17;;
4323;SDS011;2175;51.018;6.994;2022-11-13T07:02:13;11.10;;;7.93;;
4323;SDS011;2175;51.018;6.994;2022-11-13T07:04:39;12.00;;;7.27;;
4323;SDS011;2175;51.018;6.994;2022-11-13T07:07:04;10.50;;;7.43;;
4323;SDS011;2175;51.018;6.994;2022-11-13T07:09:30;11.27;;;7.10;;
4323;SDS011;2175;51.018;6.994;2022-11-13T07:11:55;11.50;;;7.23;;
4323;SDS011;2175;51.018;6.994;2022-11-13T07:14:21;9.27;;;6.83;;
4323;SDS011;2175;51.018;6.994;2022-11-13T07:16:47;11.87;;;6.70;;
4323;SDS011;2175;51.018;6.994;2022-11-13T07:19:12;10.20;;;7.13;;
4323;SDS011;2175;51.018;6.994;2022-11-13T07:21:38;12.47;;;6.50;;
4323;SDS011;2175;51.018;6.994;2022-11-13T07:24:03;11.47;;;6.30;;
4323;SDS011;2175;51.018;6.994;2022-11-13T07:26:29;10.20;;;6.67;;
4323;SDS011;2175;51.018;6.994;2022-11-13T07:28:55;11.53;;;6.27;;
4323;SDS011;2175;51.018;6.994;2022-11-13T07:31:20;11.93;;;7.10;;
4323;SDS011;2175;51.018;6.994;2022-11-13T07:33:47;10.00;;;7.10;;
4323;SDS011;2175;51.018;6.994;2022-11-13T07:36:13;10.68;;;6.47;;
4323;SDS011;2175;51.018;6.994;2022-11-13T07:38:39;11.83;;;6.50;;
4323;SDS011;2175;51.018;6.994;2022-11-13T07:41:05;10.23;;;7.07;;
4323;SDS011;2175;51.018;6.994;2022-11-13T07:43:30;15.88;;;7.07;;
4323;SDS011;2175;51.018;6.994;2022-11-13T07:45:56;13.37;;;7.03;;
4323;SDS011;2175;51.018;6.994;2022-11-13T07:48:23;11.80;;;7.60;;
4323;SDS011;2175;51.018;6.994;2022-11-13T07:50:49;11.43;;;7.00;;
4323;SDS011;2175;51.018;6.994;2022-11-13T07:53:15;11.30;;;7.00;;
4323;SDS011;2175;51.018;6.994;2022-11-13T07:55:42;9.23;;;6.13;;
4323;SDS011;2175;51.018;6.994;2022-11-13T07:58:07;10.70;;;6.40;;
4323;SDS011;2175;51.018;6.994;2022-11-13T08:00:33;13.43;;;7.50;;
4323;SDS011;2175;51.018;6.994;2022-11-13T08:03:06;13.73;;;7.63;;
4323;SDS011;2175;51.018;6.994;2022-11-13T08:05:33;9.17;;;7.67;;
4323;SDS011;2175;51.018;6.994;2022-11-13T08:08:01;11.63;;;7.47;;
4323;SDS011;2175;51.018;6.994;2022-11-13T08:10:27;9.20;;;6.27;;
4323;SDS011;2175;51.018;6.994;2022-11-13T08:13:00;9.37;;;7.30;;
4323;SDS011;2175;51.018;6.994;2022-11-13T08:15:28;11.30;;;7.67;;
4323;SDS011;2175;51.018;6.994;2022-11-13T08:17:55;9.73;;;7.70;;
4323;SDS011;2175;51.018;6.994;2022-11-13T08:20:22;10.07;;;7.47;;
4323;SDS011;2175;51.018;6.994;2022-11-13T08:22:49;11.30;;;8.00;;
4323;SDS011;2175;51.018;6.994;2022-11-13T08:25:15;13.43;;;7.97;;
4323;SDS011;2175;51.018;6.994;2022-11-13T08:27:41;11.03;;;8.27;;
4323;SDS011;2175;51.018;6.994;2022-11-13T08:30:07;12.90;;;8.33;;
4323;SDS011;2175;51.018;6.994;2022-11-13T08:32:33;15.40;;;7.97;;
4323;SDS011;2175;51.018;6.994;2022-11-13T08:34:59;13.83;;;8.50;;
4323;SDS011;2175;51.018;6.994;2022-11-13T08:37:24;9.90;;;7.53;;
4323;SDS011;2175;51.018;6.994;2022-11-13T08:39:50;11.30;;;8.37;;
4323;SDS011;2175;51.018;6.994;2022-11-13T08:42:15;12.10;;;8.93;;
4323;SDS011;2175;51.018;6.994;2022-11-13T08:44:41;11.37;;;8.73;;
4323;SDS011;2175;51.018;6.994;2022-11-13T08:47:07;11.60;;;8.47;;
4323;SDS011;2175;51.018;6.994;2022-11-13T08:49:32;10.57;;;7.83;;
4323;SDS011;2175;51.018;6.994;2022-11-13T08:51:58;12.70;;;8.50;;
4323;SDS011;2175;51.018;6.994;2022-11-13T08:54:23;12.60;;;8.30;;
4323;SDS011;2175;51.018;6.994;2022-11-13T08:56:49;15.47;;;8.67;;
4323;SDS011;2175;51.018;6.994;2022-11-13T08:59:18;11.50;;;8.30;;
4323;SDS011;2175;51.018;6.994;2022-11-13T09:01:43;12.37;;;8.40;;
4323;SDS011;2175;51.018;6.994;2022-11-13T09:04:09;11.80;;;8.20;;
4323;SDS011;2175;51.018;6.994;2022-11-13T09:06:35;10.53;;;7.37;;
4323;SDS011;2175;51.018;6.994;2022-11-13T09:09:00;13.50;;;8.67;;
4323;SDS011;2175;51.018;6.994;2022-11-13T09:11:28;14.27;;;8.63;;
4323;SDS011;2175;51.018;6.994;2022-11-13T09:13:53;17.10;;;8.03;;
4323;SDS011;2175;51.018;6.994;2022-11-13T09:16:19;15.53;;;9.10;;
4323;SDS011;2175;51.018;6.994;2022-11-13T09:18:49;11.60;;;8.30;;
4323;SDS011;2175;51.018;6.994;2022-11-13T09:21:15;12.30;;;7.97;;
4323;SDS011;2175;51.018;6.994;2022-11-13T09:23:41;13.83;;;8.27;;
4323;SDS011;2175;51.018;6.994;2022-11-13T09:26:06;15.13;;;8.17;;
4323;SDS011;2175;51.018;6.994;2022-11-13T09:28:32;11.03;;;7.43;;
4323;SDS011;2175;51.018;6.994;2022-11-13T09:31:15;9.27;;;6.60;;
4323;SDS011;2175;51.018;6.994;2022-11-13T09:33:40;10.20;;;7.30;;
4323;SDS011;2175;51.018;6.994;2022-11-13T09:36:13;10.87;;;7.30;;
4323;SDS011;2175;51.018;6.994;2022-11-13T09:38:40;11.40;;;7.20;;
4323;SDS011;2175;51.018;6.994;2022-11-13T09:41:13;12.43;;;7.23;;
4323;SDS011;2175;51.018;6.994;2022-11-13T09:48:53;7.57;;;5.30;;
4323;SDS011;2175;51.018;6.994;2022-11-13T09:51:33;6.50;;;5.23;;
4323;SDS011;2175;51.018;6.994;2022-11-13T09:54:06;11.40;;;5.87;;
4323;SDS011;2175;51.018;6.994;2022-11-13T09:56:39;8.67;;;5.40;;
4323;SDS011;2175;51.018;6.994;2022-11-13T10:07:12;10.13;;;5.30;;
4323;SDS011;2175;51.018;6.994;2022-11-13T10:12:28;8.83;;;5.83;;
4323;SDS011;2175;51.018;6.994;2022-11-13T10:14:56;7.57;;;5.30;;
4323;SDS011;2175;51.018;6.994;2022-11-13T10:20:26;8.60;;;5.00;;
4323;SDS011;2175;51.018;6.994;2022-11-13T10:22:57;6.40;;;4.87;;
4323;SDS011;2175;51.018;6.994;2022-11-13T10:25:44;10.33;;;4.93;;
4323;SDS011;2175;51.018;6.994;2022-11-13T10:28:11;7.07;;;5.00;;
4323;SDS011;2175;51.018;6.994;2022-11-13T10:30:41;7.80;;;5.20;;
4323;SDS011;2175;51.018;6.994;2022-11-13T10:33:07;7.47;;;4.90;;
4323;SDS011;2175;51.018;6.994;2022-11-13T10:40:31;10.30;;;5.20;;
4323;SDS011;2175;51.018;6.994;2022-11-13T10:43:14;6.90;;;4.70;;
4323;SDS011;2175;51.018;6.994;2022-11-13T10:45:51;6.57;;;4.60;;
4323;SDS011;2175;51.018;6.994;2022-11-13T10:48:26;7.30;;;4.70;;
4323;SDS011;2175;51.018;6.994;2022-11-13T10:51:01;7.53;;;4.60;;
4323;SDS011;2175;51.018;6.994;2022-11-13T10:53:37;8.80;;;4.93;;
4323;SDS011;2175;51.018;6.994;2022-11-13T10:56:12;9.03;;;4.70;;
4323;SDS011;2175;51.018;6.994;2022-11-13T11:01:38;6.77;;;4.80;;
4323;SDS011;2175;51.018;6.994;2022-11-13T11:04:04;6.70;;;4.43;;
4323;SDS011;2175;51.018;6.994;2022-11-13T11:06:32;7.13;;;3.93;;
4323;SDS011;2175;51.018;6.994;2022-11-13T11:09:35;6.90;;;4.30;;
4323;SDS011;2175;51.018;6.994;2022-11-13T11:17:36;5.13;;;3.50;;
4323;SDS011;2175;51.018;6.994;2022-11-13T11:22:49;7.40;;;3.87;;
4323;SDS011;2175;51.018;6.994;2022-11-13T11:27:55;5.57;;;3.97;;
4323;SDS011;2175;51.018;6.994;2022-11-13T11:30:46;11.67;;;4.50;;
4323;SDS011;2175;51.018;6.994;2022-11-13T11:33:26;6.10;;;3.83;;
4323;SDS011;2175;51.018;6.994;2022-11-13T11:35:58;11.10;;;3.47;;
4323;SDS011;2175;51.018;6.994;2022-11-13T11:41:18;4.77;;;3.57;;
4323;SDS011;2175;51.018;6.994;2022-11-13T11:43:50;4.80;;;3.30;;
4323;SDS011;2175;51.018;6.994;2022-11-13T11:46:26;5.17;;;3.23;;
4323;SDS011;2175;51.018;6.994;2022-11-13T11:48:56;5.40;;;3.20;;
4323;SDS011;2175;51.018;6.994;2022-11-13T11:51:25;6.83;;;3.10;;
4323;SDS011;2175;51.018;6.994;2022-11-13T12:00:12;4.97;;;3.30;;
4323;SDS011;2175;51.018;6.994;2022-11-13T12:15:58;4.73;;;3.03;;
4323;SDS011;2175;51.018;6.994;2022-11-13T12:18:48;4.93;;;3.00;;
4323;SDS011;2175;51.018;6.994;2022-11-13T12:29:56;7.73;;;2.73;;
4323;SDS011;2175;51.018;6.994;2022-11-13T12:35:46;5.87;;;3.17;;
4323;SDS011;2175;51.018;6.994;2022-11-13T12:46:34;5.13;;;3.03;;
4323;SDS011;2175;51.018;6.994;2022-11-13T12:49:02;5.63;;;2.77;;
4323;SDS011;2175;51.018;6.994;2022-11-13T12:51:56;4.57;;;2.87;;
4323;SDS011;2175;51.018;6.994;2022-11-13T12:54:46;5.30;;;3.20;;
4323;SDS011;2175;51.018;6.994;2022-11-13T12:59:42;3.47;;;2.57;;
4323;SDS011;2175;51.018;6.994;2022-11-13T13:10:48;5.03;;;3.17;;
4323;SDS011;2175;51.018;6.994;2022-11-13T13:16:25;4.43;;;3.10;;
4323;SDS011;2175;51.018;6.994;2022-11-13T13:19:04;4.13;;;3.00;;
4323;SDS011;2175;51.018;6.994;2022-11-13T13:21:39;6.80;;;3.37;;
4323;SDS011;2175;51.018;6.994;2022-11-13T13:24:20;4.83;;;2.97;;
4323;SDS011;2175;51.018;6.994;2022-11-13T13:26:59;4.17;;;2.87;;
4323;SDS011;2175;51.018;6.994;2022-11-13T13:29:26;4.37;;;2.97;;
4323;SDS011;2175;51.018;6.994;2022-11-13T13:32:05;5.67;;;2.80;;
4323;SDS011;2175;51.018;6.994;2022-11-13T13:48:19;4.33;;;3.00;;
4323;SDS011;2175;51.018;6.994;2022-11-13T13:50:50;4.03;;;2.80;;
4323;SDS011;2175;51.018;6.994;2022-11-13T13:53:39;5.17;;;2.93;;
4323;SDS011;2175;51.018;6.994;2022-11-13T13:56:04;3.60;;;2.70;;
4323;SDS011;2175;51.018;6.994;2022-11-13T13:58:35;3.90;;;2.77;;
4323;SDS011;2175;51.018;6.994;2022-11-13T14:01:03;4.70;;;3.17;;
4323;SDS011;2175;51.018;6.994;2022-11-13T14:03:30;4.10;;;3.27;;
4323;SDS011;2175;51.018;6.994;2022-11-13T14:06:18;5.03;;;3.50;;
4323;SDS011;2175;51.018;6.994;2022-11-13T14:08:45;5.47;;;3.37;;
4323;SDS011;2175;51.018;6.994;2022-11-13T14:11:22;5.03;;;3.27;;
4323;SDS011;2175;51.018;6.994;2022-11-13T14:13:51;4.97;;;3.17;;
4323;SDS011;2175;51.018;6.994;2022-11-13T14:16:16;4.27;;;3.33;;
4323;SDS011;2175;51.018;6.994;2022-11-13T14:18:42;6.47;;;3.87;;
4323;SDS011;2175;51.018;6.994;2022-11-13T14:21:12;5.53;;;3.13;;
4323;SDS011;2175;51.018;6.994;2022-11-13T14:23:45;6.73;;;3.77;;
4323;SDS011;2175;51.018;6.994;2022-11-13T14:26:15;4.13;;;3.30;;
4323;SDS011;2175;51.018;6.994;2022-11-13T14:28:44;5.60;;;3.00;;
4323;SDS011;2175;51.018;6.994;2022-11-13T14:31:16;5.60;;;3.27;;
4323;SDS011;2175;51.018;6.994;2022-11-13T14:33:43;4.60;;;3.30;;
4323;SDS011;2175;51.018;6.994;2022-11-13T14:36:13;5.17;;;3.67;;
4323;SDS011;2175;51.018;6.994;2022-11-13T14:38:48;8.20;;;3.60;;
4323;SDS011;2175;51.018;6.994;2022-11-13T14:41:19;4.10;;;3.37;;
4323;SDS011;2175;51.018;6.994;2022-11-13T14:43:49;6.17;;;3.50;;
4323;SDS011;2175;51.018;6.994;2022-11-13T14:46:35;4.23;;;3.23;;
4323;SDS011;2175;51.018;6.994;2022-11-13T14:49:02;4.80;;;3.57;;
4323;SDS011;2175;51.018;6.994;2022-11-13T14:51:36;5.13;;;3.47;;
4323;SDS011;2175;51.018;6.994;2022-11-13T14:54:04;6.40;;;3.10;;
4323;SDS011;2175;51.018;6.994;2022-11-13T14:56:35;5.30;;;3.80;;
4323;SDS011;2175;51.018;6.994;2022-11-13T14:59:06;6.27;;;4.43;;
4323;SDS011;2175;51.018;6.994;2022-11-13T15:01:33;8.23;;;3.87;;
4323;SDS011;2175;51.018;6.994;2022-11-13T15:03:59;6.07;;;3.60;;
4323;SDS011;2175;51.018;6.994;2022-11-13T15:06:26;6.67;;;3.97;;
4323;SDS011;2175;51.018;6.994;2022-11-13T15:09:03;5.63;;;3.20;;
4323;SDS011;2175;51.018;6.994;2022-11-13T15:11:36;7.07;;;3.33;;
4323;SDS011;2175;51.018;6.994;2022-11-13T15:14:25;6.37;;;4.17;;
4323;SDS011;2175;51.018;6.994;2022-11-13T15:16:50;8.23;;;3.30;;
4323;SDS011;2175;51.018;6.994;2022-11-13T15:19:24;5.67;;;3.77;;
4323;SDS011;2175;51.018;6.994;2022-11-13T15:21:58;7.50;;;4.10;;
4323;SDS011;2175;51.018;6.994;2022-11-13T15:24:24;11.00;;;3.90;;
4323;SDS011;2175;51.018;6.994;2022-11-13T15:26:49;9.10;;;3.93;;
4323;SDS011;2175;51.018;6.994;2022-11-13T15:29:15;9.60;;;4.67;;
4323;SDS011;2175;51.018;6.994;2022-11-13T15:31:41;7.60;;;4.03;;
4323;SDS011;2175;51.018;6.994;2022-11-13T15:34:12;6.90;;;4.00;;
4323;SDS011;2175;51.018;6.994;2022-11-13T15:36:40;7.07;;;4.13;;
4323;SDS011;2175;51.018;6.994;2022-11-13T15:39:06;8.20;;;4.10;;
4323;SDS011;2175;51.018;6.994;2022-11-13T15:41:33;15.13;;;3.77;;
4323;SDS011;2175;51.018;6.994;2022-11-13T15:44:00;5.97;;;4.00;;
4323;SDS011;2175;51.018;6.994;2022-11-13T15:46:30;7.63;;;4.40;;
4323;SDS011;2175;51.018;6.994;2022-11-13T15:48:56;7.57;;;3.80;;
4323;SDS011;2175;51.018;6.994;2022-11-13T15:56:54;7.40;;;4.13;;
4323;SDS011;2175;51.018;6.994;2022-11-13T15:59:19;6.57;;;4.07;;
4323;SDS011;2175;51.018;6.994;2022-11-13T16:01:45;5.60;;;3.87;;
4323;SDS011;2175;51.018;6.994;2022-11-13T16:04:11;9.40;;;4.23;;
4323;SDS011;2175;51.018;6.994;2022-11-13T16:06:39;7.13;;;4.00;;
4323;SDS011;2175;51.018;6.994;2022-11-13T16:09:05;12.50;;;5.50;;
4323;SDS011;2175;51.018;6.994;2022-11-13T16:11:36;11.00;;;6.13;;
4323;SDS011;2175;51.018;6.994;2022-11-13T16:14:02;13.90;;;5.80;;
4323;SDS011;2175;51.018;6.994;2022-11-13T16:16:29;18.37;;;5.40;;
4323;SDS011;2175;51.018;6.994;2022-11-13T16:19:03;9.70;;;5.00;;
4323;SDS011;2175;51.018;6.994;2022-11-13T16:21:43;11.00;;;4.57;;
4323;SDS011;2175;51.018;6.994;2022-11-13T16:24:09;9.33;;;4.70;;
4323;SDS011;2175;51.018;6.994;2022-11-13T16:26:35;12.07;;;5.30;;
4323;SDS011;2175;51.018;6.994;2022-11-13T16:29:01;8.30;;;5.03;;
4323;SDS011;2175;51.018;6.994;2022-11-13T16:31:44;7.93;;;4.00;;
4323;SDS011;2175;51.018;6.994;2022-11-13T16:34:10;10.67;;;4.40;;
4323;SDS011;2175;51.018;6.994;2022-11-13T16:36:35;7.27;;;4.30;;
4323;SDS011;2175;51.018;6.994;2022-11-13T16:39:01;8.27;;;4.53;;
4323;SDS011;2175;51.018;6.994;2022-11-13T16:41:29;7.77;;;4.17;;
4323;SDS011;2175;51.018;6.994;2022-11-13T16:43:56;11.30;;;4.23;;
4323;SDS011;2175;51.018;6.994;2022-11-13T16:46:25;9.00;;;4.47;;
4323;SDS011;2175;51.018;6.994;2022-11-13T16:48:52;7.73;;;4.77;;
4323;SDS011;2175;51.018;6.994;2022-11-13T16:51:17;8.07;;;4.30;;
4323;SDS011;2175;51.018;6.994;2022-11-13T16:53:43;8.40;;;4.40;;
4323;SDS011;2175;51.018;6.994;2022-11-13T16:56:13;9.37;;;4.40;;
4323;SDS011;2175;51.018;6.994;2022-11-13T16:58:41;15.13;;;4.93;;
4323;SDS011;2175;51.018;6.994;2022-11-13T17:01:12;8.53;;;5.03;;
4323;SDS011;2175;51.018;6.994;2022-11-13T17:03:40;9.90;;;4.80;;
4323;SDS011;2175;51.018;6.994;2022-11-13T17:06:11;10.27;;;5.13;;